• Join FlightAware (Why Join?)
  • Login
  • US Flag 
10:46AM EST


 

Airport Tracker/Info


-or-


 

Live Flight TrackerFlight Track Log ✈ N40BZ ✈ 26-Jul-2013 ✈ KHTO - KBUF

Flight Track Log - Related Links

Times and Time Zones

All times are in EDT time to prevent confusion due to time zone crossing. See the N40BZ flight status page for this flight to view local times or setup timezone preferences in your user account.

Time Position Orientation Groundspeed Altitude Reporting Facility
EDT Latitude Longitude Course Direction KTS MPH feet Rate Location/Type
12:02PM 40.9333 -72.3500 304° West 122 140 2,900  Level New York TRACON
12:03PM 40.9500 -72.3833 304° West 121 139 3,900 540 Climbing New York TRACON
12:04PM 40.9833 -72.4167 323° Northwest 145 167 4,000 60 Climbing New York TRACON
12:05PM 41.0167 -72.4667 311° West 159 183 4,100  Climbing New York TRACON
12:06PM 41.0500 -72.5000 323° Northwest 161 185 4,100  Level New York TRACON
12:07PM 41.0366 -72.6029 282° West  Level FlightAware Approximate
12:07PM 41.0667 -72.5500 294° West 160 184 4,100  Level New York TRACON
12:08PM 41.0833 -72.6000 294° West 166 191 4,000 -60 Descending New York TRACON
12:09PM 41.1167 -72.6500 312° West 166 191 4,000  Level New York TRACON
12:10PM 41.1333 -72.7167 288° West 172 198 4,000  Level New York TRACON
12:11PM 41.1500 -72.7667 294° West 168 193 4,000  Level New York TRACON
12:12PM 41.1667 -72.8333 288° West 167 192 4,000  Level New York TRACON
12:13PM 41.1833 -72.8833 294° West 169 194 4,000  Level New York TRACON
12:14PM 41.2000 -72.9333 294° West 165 190 4,000  Level New York TRACON
12:15PM 41.2167 -72.9833 294° West 168 193 4,000  Level New York TRACON
12:16PM 41.2333 -73.0500 288° West 167 192 4,000 60 Level New York TRACON
12:17PM 41.2667 -73.1000 312° West 163 188 4,200 420 Climbing New York TRACON
12:18PM 41.2667 -73.1500 270° West 150 173 4,900 900 Climbing New York TRACON
12:19PM 41.2833 -73.2000 294° West 139 160 6,000 540 Climbing New York TRACON
12:20PM 41.3000 -73.2667 288° West 161 185 6,000  Level New York TRACON
12:21PM 41.3167 -73.3167 294° West 171 197 6,000  Level New York TRACON
12:22PM 41.3333 -73.3667 294° West 173 199 6,000  Level New York TRACON
12:23PM 41.3167 -73.4333 252° West 178 205 6,000  Level New York TRACON
12:24PM 41.3000 -73.5000 252° West 180 207 6,000  Level New York TRACON
12:25PM 41.3000 -73.5500 270° West 177 204 6,000  Level New York TRACON
12:26PM 41.2667 -73.6333 242° Southwest 178 205 6,000 180 Level New York TRACON
12:27PM 41.2667 -73.6833 270° West 165 190 6,400 420 Climbing New York TRACON
12:28PM 41.2500 -73.7333 246° West 156 180 6,900 600 Climbing New York TRACON
12:29PM 41.2500 -73.8000 270° West 159 183 7,600 660 Climbing New York TRACON
12:30PM 41.2667 -73.8500 294° West 154 177 8,300 780 Climbing New York TRACON
12:31PM 41.2833 -73.9000 294° West 149 171 9,200 840 Climbing New York TRACON
12:32PM 41.3000 -73.9500 294° West 152 175 10,000 600 Climbing New York TRACON
12:33PM 41.3167 -74.0000 294° West 163 188 10,500 240 Climbing New York TRACON
12:34PM 41.3333 -74.0500 294° West 177 204 10,500  Level New York TRACON
12:35PM 41.3667 -74.1167 304° West 183 211 10,500  Level New York TRACON
12:37PM 41.3925 -74.2056 291° West 181 208 10,500  Level Boston Center
12:38PM 41.4125 -74.2586 297° West 181 208 10,500  Level Boston Center
12:39PM 41.4364 -74.3258 295° West 181 208 10,500  Level Boston Center
12:40PM 41.4564 -74.3761 298° West 174 200 10,500  Level Boston Center
12:41PM 41.4803 -74.4433 295° West 180 207 10,500  Level Boston Center
12:42PM 41.5119 -74.5275 297° West 180 207 10,500  Level Boston Center
12:43PM 41.5297 -74.5836 293° West 180 207 10,500  Level Boston Center
12:44PM 41.5556 -74.6483 298° West 180 207 10,500  Level Boston Center
12:45PM 41.5753 -74.7072 294° West 180 207 10,500  Level Boston Center
12:46PM 41.5989 -74.7719 296° West 180 207 10,500  Level Boston Center
12:47PM 41.6186 -74.8283 295° West 180 207 10,500  Level Boston Center
12:50PM 41.6778 -74.9869 297° West 200 230 10,500 -60 Level New York Center
12:51PM 41.6967 -75.0436 294° West 191 220 10,400 -60 Descending New York Center
12:52PM 41.7211 -75.1119 296° West 191 220 10,400  Level New York Center
12:53PM 41.7439 -75.1717 297° West 186 214 10,400  Level New York Center
12:54PM 41.7647 -75.2314 295° West 186 214 10,400  Level New York Center
12:55PM 41.7853 -75.2883 296° West 181 208 10,400 -480 Level New York Center
12:56PM 41.8058 -75.3511 294° West 181 208 9,500  Descending New York Center
12:57PM 41.8303 -75.4194 296° West 181 208 10,500 480 Climbing New York Center
12:58PM 41.8528 -75.4797 297° West 181 208 10,500  Level New York Center
12:59PM 41.8733 -75.5394 295° West 181 208 10,500  Level New York Center
01:00PM 41.8919 -75.5939 295° West 181 208 10,500  Level New York Center
01:01PM 41.9164 -75.6597 297° West 181 208 10,500  Level New York Center
01:02PM 41.9350 -75.7167 294° West 181 208 10,500  Level New York Center
01:03PM 41.9575 -75.7742 298° West 181 208 10,500  Level New York Center
01:04PM 41.9794 -75.8428 293° West 181 208 10,500  Level New York Center
01:05PM 41.9997 -75.9031 294° West 181 208 10,500  Level New York Center
01:06PM 42.0183 -75.9575 295° West 181 208 10,500  Level New York Center
01:07PM 42.0406 -76.0208 295° West 181 208 10,500  Level New York Center
01:08PM 42.0628 -76.0811 296° West 181 208 10,500  Level New York Center
01:09PM 42.0831 -76.1414 294° West 181 208 10,500  Level New York Center
01:10PM 42.1053 -76.2019 296° West 181 208 10,500  Level New York Center
01:11PM 42.1253 -76.2650 293° West 181 208 10,500  Level New York Center
01:12PM 42.1475 -76.3256 296° West 181 208 10,500  Level New York Center
01:13PM 42.1694 -76.3892 295° West 181 208 10,500 -60 Level New York Center
01:14PM 42.1894 -76.4497 294° West 181 208 10,400 -60 Descending New York Center
01:15PM 42.2092 -76.5128 293° West 181 208 10,400  Level New York Center
01:16PM 42.2333 -76.5767 297° West 181 208 10,400  Level New York Center
01:17PM 42.2531 -76.6372 294° West 181 208 10,400  Level New York Center
01:18PM 42.2850 -76.7236 297° West 178 205 10,400  Level Cleveland Center
01:19PM 42.3039 -76.7844 293° West 178 205 10,400  Level Cleveland Center
01:20PM 42.3267 -76.8475 296° West 178 205 10,400  Level Cleveland Center
01:21PM 42.3475 -76.9111 294° West 178 205 10,400  Level Cleveland Center
01:22PM 42.3681 -76.9717 295° West 183 211 10,400  Level Cleveland Center
01:23PM 42.3889 -77.0350 294° West 188 216 10,400  Level Cleveland Center
01:24PM 42.4072 -77.0875 295° West 184 212 10,500  Climbing Cleveland Center
01:25PM 42.4325 -77.1622 295° West 188 216 10,500  Level Cleveland Center
01:26PM 42.4464 -77.2119 291° West 181 208 10,600  Climbing Cleveland Center
01:27PM 42.4669 -77.2756 294° West 182 209 10,600 -60 Level Cleveland Center
01:28PM 42.4942 -77.3475 297° West 188 216 10,500  Descending Cleveland Center
01:29PM 42.5100 -77.4003 292° West 182 209 10,600  Climbing Cleveland Center
01:30PM 42.5308 -77.4669 293° West 185 213 10,600 -60 Level Cleveland Center
01:31PM 42.5575 -77.5361 298° West 182 209 10,500  Descending Cleveland Center
01:32PM 42.5739 -77.5972 290° West 182 209 10,600  Climbing Cleveland Center
01:33PM 42.5942 -77.6583 294° West 181 208 10,600 -120 Level Cleveland Center
01:33PM 42.5942 -77.6583 294° West 187 215 10,500  Descending Cleveland Center
01:34PM 42.6122 -77.7194 292° West 182 209 10,600  Climbing Cleveland Center
01:35PM 42.6325 -77.7836 293° West 180 207 10,600 -180 Level Cleveland Center
01:37PM 42.6833 -77.9167 297° West 184 212 10,100 -420 Descending Buffalo TRACON
01:38PM 42.7000 -77.9833 289° West 201 231 9,400 -720 Descending Buffalo TRACON
01:39PM 42.7333 -78.0500 304° West 201 231 8,700 -720 Descending Buffalo TRACON
01:40PM 42.7500 -78.1167 289° West 199 229 8,000 -720 Descending Buffalo TRACON
01:41PM 42.7667 -78.1833 289° West 199 229 7,400 -720 Descending Buffalo TRACON
01:42PM 42.7833 -78.2500 289° West 198 228 6,700 -720 Descending Buffalo TRACON
01:43PM 42.8167 -78.3167 304° West 197 227 5,900 -720 Descending Buffalo TRACON
01:44PM 42.8333 -78.3833 289° West 195 224 5,200 -780 Descending Buffalo TRACON
01:45PM 42.8667 -78.4500 304° West 187 215 4,400 -660 Descending Buffalo TRACON
01:46PM 42.9000 -78.5000 312° West 156 180 3,900 -540 Descending Buffalo TRACON
01:47PM 42.9167 -78.5333 304° West 150 173 3,400 -480 Descending Buffalo TRACON
01:48PM 42.9667 -78.5667 334° Northwest 161 185 3,000 -600 Descending Buffalo TRACON
01:49PM 42.9667 -78.6167 270° West 178 205 2,200 -780 Descending Buffalo TRACON
01:50PM 42.9667 -78.6833 270° West 161 185 1,500 -720 Descending Buffalo TRACON
01:51PM 42.9500 -78.7167 236° Southwest 108 124 800 -720 Descending Buffalo TRACON
01:53PM 42.9333 -78.7167 294° West  Level FlightAware Approximate
02:00PM 42.9404 -78.7306 294° West  Level Estimated